createdAt,value
2023-01-26T00:00:07.953Z,6.57
2023-01-26T00:02:36.360Z,6.13
2023-01-26T00:05:05.284Z,6.73
2023-01-26T00:07:33.640Z,6.50
2023-01-26T00:10:01.987Z,6.30
2023-01-26T00:12:30.397Z,6.60
2023-01-26T00:14:58.745Z,6.30
2023-01-26T00:17:28.421Z,6.17
2023-01-26T00:19:58.172Z,5.90
2023-01-26T00:22:27.963Z,6.10
2023-01-26T00:24:56.535Z,6.43
2023-01-26T00:27:24.870Z,5.93
2023-01-26T00:29:53.174Z,6.23
2023-01-26T00:32:21.506Z,6.00
2023-01-26T00:34:51.297Z,6.17
2023-01-26T00:37:19.682Z,6.40
2023-01-26T00:39:47.994Z,6.27
2023-01-26T00:42:16.278Z,5.90
2023-01-26T00:44:45.273Z,6.00
2023-01-26T00:47:14.812Z,6.77
2023-01-26T00:49:43.139Z,6.03
2023-01-26T00:52:13.219Z,6.07
2023-01-26T00:54:41.619Z,5.77
2023-01-26T00:57:10.057Z,6.00
2023-01-26T00:59:38.586Z,5.90
2023-01-26T01:02:06.983Z,6.13
2023-01-26T01:04:35.487Z,6.57
2023-01-26T01:07:04.133Z,6.13
2023-01-26T01:09:34.445Z,6.33
2023-01-26T01:12:03.167Z,6.10
2023-01-26T01:14:31.845Z,5.40
2023-01-26T01:17:00.542Z,5.70
2023-01-26T01:19:30.664Z,6.30
2023-01-26T01:22:00.438Z,5.93
2023-01-26T01:24:28.813Z,5.53
2023-01-26T01:26:58.560Z,5.77
2023-01-26T01:29:26.839Z,6.70
2023-01-26T01:31:55.163Z,5.73
2023-01-26T01:34:23.506Z,5.97
2023-01-26T01:36:52.323Z,5.60
2023-01-26T01:39:20.700Z,5.93
2023-01-26T01:41:49.114Z,6.30
2023-01-26T01:44:20.917Z,5.70
2023-01-26T01:46:55.009Z,5.60
2023-01-26T01:49:27.284Z,5.07
2023-01-26T01:52:00.301Z,5.00
2023-01-26T01:54:33.644Z,5.50
2023-01-26T01:57:06.038Z,5.60
2023-01-26T01:59:36.206Z,5.53
2023-01-26T02:02:04.725Z,5.33
2023-01-26T02:04:33.123Z,5.30
2023-01-26T02:07:02.743Z,5.73
2023-01-26T02:09:52.109Z,5.53
2023-01-26T02:12:24.345Z,5.40
2023-01-26T02:14:55.169Z,5.20
2023-01-26T02:17:23.679Z,5.43
2023-01-26T02:19:59.931Z,5.60
2023-01-26T02:22:42.420Z,5.60
2023-01-26T02:25:21.894Z,5.80
2023-01-26T02:27:52.623Z,5.57
2023-01-26T02:30:23.727Z,6.30
2023-01-26T02:32:52.389Z,5.73
2023-01-26T02:35:21.100Z,6.03
2023-01-26T02:37:49.691Z,5.63
2023-01-26T02:40:27.333Z,5.93
2023-01-26T02:42:56.375Z,5.60
2023-01-26T02:45:27.940Z,5.60
2023-01-26T02:47:56.570Z,5.10
2023-01-26T02:50:24.452Z,5.40
2023-01-26T02:52:53.093Z,5.77
2023-01-26T02:55:25.414Z,5.47
2023-01-26T02:57:57.295Z,6.13
2023-01-26T03:00:27.862Z,6.07
2023-01-26T03:02:58.816Z,5.60
2023-01-26T03:05:27.973Z,5.53
2023-01-26T03:07:57.619Z,6.20
2023-01-26T03:10:27.268Z,5.53
2023-01-26T03:12:57.391Z,5.83
2023-01-26T03:15:44.266Z,5.30
2023-01-26T03:18:28.999Z,5.90
2023-01-26T03:21:16.532Z,5.87
2023-01-26T03:24:03.021Z,5.70
2023-01-26T03:26:49.394Z,6.03
2023-01-26T03:29:19.572Z,5.80
2023-01-26T03:31:48.277Z,6.63
2023-01-26T03:34:17.025Z,6.90
2023-01-26T03:36:45.643Z,6.60
2023-01-26T03:39:34.740Z,6.77
2023-01-26T03:42:21.093Z,6.80
2023-01-26T03:45:08.933Z,6.10
2023-01-26T03:47:55.642Z,7.23
2023-01-26T03:50:41.723Z,5.73
2023-01-26T03:53:35.057Z,6.10
2023-01-26T03:56:21.969Z,5.57
2023-01-26T03:58:52.852Z,5.77
2023-01-26T04:01:26.509Z,6.97
2023-01-26T04:04:14.157Z,6.70
2023-01-26T04:07:02.184Z,5.50
2023-01-26T04:09:31.308Z,5.70
2023-01-26T04:12:00.394Z,5.70
2023-01-26T04:14:50.132Z,5.10
2023-01-26T04:17:38.522Z,5.07
2023-01-26T04:20:26.043Z,5.27
2023-01-26T04:22:54.411Z,5.87
2023-01-26T04:25:23.845Z,5.60
2023-01-26T04:27:52.211Z,5.63
2023-01-26T04:30:21.766Z,5.23
2023-01-26T04:32:53.014Z,4.97
2023-01-26T04:35:21.582Z,5.50
2023-01-26T04:37:50.330Z,6.87
2023-01-26T04:40:19.016Z,5.37
2023-01-26T04:42:47.403Z,5.83
2023-01-26T04:45:16.276Z,5.13
2023-01-26T04:47:44.588Z,5.30
2023-01-26T04:50:14.714Z,5.37
2023-01-26T04:52:43.094Z,6.03
2023-01-26T04:55:11.906Z,5.37
2023-01-26T04:57:40.210Z,5.83
2023-01-26T05:00:11.208Z,5.33
2023-01-26T05:02:40.527Z,5.60
2023-01-26T05:05:09.721Z,5.40
2023-01-26T05:07:39.377Z,6.30
2023-01-26T05:10:09.228Z,5.60
2023-01-26T05:12:38.422Z,5.63
2023-01-26T05:15:07.763Z,5.80
2023-01-26T05:17:37.046Z,6.03
2023-01-26T05:20:06.656Z,5.70
2023-01-26T05:22:35.164Z,6.00
2023-01-26T05:25:05.363Z,5.20
2023-01-26T05:27:33.746Z,5.90
2023-01-26T05:30:02.089Z,5.70
2023-01-26T05:32:31.899Z,5.73
2023-01-26T05:35:00.295Z,6.03
2023-01-26T05:37:29.976Z,5.70
2023-01-26T05:39:58.318Z,5.70
2023-01-26T05:42:28.304Z,5.90
2023-01-26T05:44:56.634Z,5.77
2023-01-26T05:47:25.029Z,5.93
2023-01-26T05:49:53.376Z,6.17
2023-01-26T05:52:23.323Z,7.07
2023-01-26T05:54:51.738Z,5.97
2023-01-26T05:57:20.149Z,6.30
2023-01-26T05:59:49.951Z,5.93
2023-01-26T06:02:18.366Z,6.20
2023-01-26T06:04:46.712Z,5.70
2023-01-26T06:07:15.304Z,6.13
2023-01-26T06:09:47.986Z,7.07
2023-01-26T06:12:18.351Z,6.87
2023-01-26T06:14:47.429Z,6.83
2023-01-26T06:17:22.316Z,7.30
2023-01-26T06:19:50.690Z,6.40
2023-01-26T06:22:19.045Z,7.70
2023-01-26T06:24:47.715Z,6.77
2023-01-26T06:30:07.063Z,6.20
2023-01-26T06:32:37.370Z,6.17
2023-01-26T06:35:11.293Z,5.70
2023-01-26T06:37:47.664Z,6.00
2023-01-26T06:40:16.520Z,5.20
2023-01-26T06:42:50.220Z,6.57
2023-01-26T06:45:20.737Z,8.40
2023-01-26T06:47:52.137Z,7.33
2023-01-26T06:50:23.907Z,6.37
2023-01-26T06:52:56.073Z,6.20
2023-01-26T06:55:33.551Z,5.90
2023-01-26T06:58:01.940Z,6.13
2023-01-26T07:00:30.729Z,7.00
2023-01-26T07:03:00.436Z,6.67
2023-01-26T07:05:28.727Z,6.43
2023-01-26T07:07:57.039Z,7.57
2023-01-26T07:10:35.078Z,6.80
2023-01-26T07:13:08.868Z,7.33
2023-01-26T07:15:38.045Z,6.60
2023-01-26T07:18:17.004Z,6.37
2023-01-26T07:21:00.478Z,6.20
2023-01-26T07:23:30.829Z,6.07
2023-01-26T07:26:00.024Z,6.00
2023-01-26T07:28:40.424Z,6.10
2023-01-26T07:31:14.987Z,6.90
2023-01-26T07:33:49.890Z,7.80
2023-01-26T07:36:24.798Z,7.90
2023-01-26T07:39:09.806Z,8.70
2023-01-26T07:41:38.227Z,7.30
2023-01-26T07:44:10.323Z,7.17
2023-01-26T07:46:38.833Z,6.30
2023-01-26T07:49:08.859Z,6.50
2023-01-26T07:51:37.309Z,6.80
2023-01-26T07:54:05.782Z,6.70
2023-01-26T07:56:45.272Z,6.57
2023-01-26T07:59:17.943Z,6.67
2023-01-26T08:01:54.742Z,7.93
2023-01-26T08:04:24.677Z,7.67
2023-01-26T08:06:53.127Z,7.33
2023-01-26T08:09:21.617Z,6.70
2023-01-26T08:11:50.024Z,6.40
2023-01-26T08:14:18.465Z,6.40
2023-01-26T08:16:47.305Z,6.10
2023-01-26T08:19:15.870Z,7.90
2023-01-26T08:21:46.020Z,7.40
2023-01-26T08:24:14.831Z,7.27
2023-01-26T08:26:44.412Z,6.30
2023-01-26T08:29:13.144Z,5.63
2023-01-26T08:31:41.595Z,5.37
2023-01-26T08:34:10.207Z,5.37
2023-01-26T08:36:48.723Z,5.80
2023-01-26T08:39:19.160Z,5.40
2023-01-26T08:42:04.859Z,5.47
2023-01-26T08:44:34.124Z,5.57
2023-01-26T08:47:02.550Z,6.23
2023-01-26T08:49:30.921Z,5.70
2023-01-26T08:52:01.168Z,5.57
2023-01-26T08:54:29.483Z,5.00
2023-01-26T08:56:59.027Z,5.03
2023-01-26T08:59:30.515Z,4.90
2023-01-26T09:02:01.412Z,5.10
2023-01-26T09:04:30.353Z,4.60
2023-01-26T09:07:00.133Z,5.57
2023-01-26T09:09:28.723Z,6.83
2023-01-26T09:11:57.463Z,6.13
2023-01-26T09:14:25.993Z,5.47
2023-01-26T09:16:54.861Z,4.80
2023-01-26T09:19:23.415Z,4.80
2023-01-26T09:21:54.804Z,4.20
2023-01-26T09:24:25.187Z,4.57
2023-01-26T09:26:53.710Z,4.80
2023-01-26T09:29:22.206Z,4.73
2023-01-26T09:31:50.640Z,5.57
2023-01-26T09:34:18.958Z,5.40
2023-01-26T09:36:47.239Z,5.00
2023-01-26T09:39:15.570Z,5.20
2023-01-26T09:41:58.309Z,5.57
2023-01-26T09:44:28.510Z,5.50
2023-01-26T09:47:09.233Z,6.07
2023-01-26T09:49:48.551Z,5.80
2023-01-26T09:52:24.193Z,5.80
2023-01-26T09:54:55.281Z,5.73
2023-01-26T09:57:31.560Z,6.17
2023-01-26T10:00:04.498Z,6.30
2023-01-26T10:02:50.454Z,5.97
2023-01-26T10:05:32.066Z,6.63
2023-01-26T10:08:04.894Z,6.20
2023-01-26T10:10:41.621Z,6.03
2023-01-26T10:13:22.183Z,6.10
2023-01-26T10:15:56.982Z,5.53
2023-01-26T10:18:30.305Z,5.30
2023-01-26T10:21:01.145Z,5.90
2023-01-26T10:23:32.687Z,5.33
2023-01-26T10:26:13.972Z,6.07
2023-01-26T10:28:45.263Z,5.60
2023-01-26T10:31:17.495Z,5.37
2023-01-26T10:33:52.854Z,5.83
2023-01-26T10:36:21.951Z,5.73
2023-01-26T10:39:06.166Z,5.90
2023-01-26T10:42:21.960Z,6.43
2023-01-26T10:44:34.739Z,6.07
2023-01-26T10:47:08.441Z,5.90
2023-01-26T10:49:36.753Z,6.83
2023-01-26T10:52:11.369Z,6.53
2023-01-26T10:54:39.781Z,7.10
2023-01-26T10:57:25.772Z,6.63
2023-01-26T11:00:03.070Z,6.83
2023-01-26T11:02:37.342Z,6.13
2023-01-26T11:05:32.649Z,6.83
2023-01-26T11:08:03.560Z,7.37
2023-01-26T11:10:41.466Z,6.87
2023-01-26T11:13:20.770Z,7.40
2023-01-26T11:16:01.509Z,7.50
2023-01-26T11:18:43.022Z,6.87
2023-01-26T11:21:19.895Z,7.17
2023-01-26T11:24:11.386Z,7.40
2023-01-26T11:27:06.979Z,8.10
2023-01-26T11:29:52.311Z,7.40
2023-01-26T11:32:44.483Z,7.27
2023-01-26T11:35:27.265Z,7.43
2023-01-26T11:38:05.672Z,7.43
2023-01-26T11:40:54.105Z,8.83
2023-01-26T11:43:49.059Z,7.27
2023-01-26T11:46:52.882Z,6.87
2023-01-26T11:49:39.759Z,6.57
2023-01-26T11:52:16.576Z,6.30
2023-01-26T11:55:18.435Z,8.33
2023-01-26T11:58:01.671Z,6.90
2023-01-26T12:00:38.946Z,7.40
2023-01-26T12:03:28.526Z,6.90
2023-01-26T12:06:03.467Z,7.00
2023-01-26T12:08:39.149Z,6.13
2023-01-26T12:11:30.709Z,7.67
2023-01-26T12:14:24.557Z,15.90
2023-01-26T12:17:18.968Z,11.33
2023-01-26T12:19:57.537Z,10.33
2023-01-26T12:25:26.265Z,8.23
2023-01-26T12:28:00.417Z,6.93
2023-01-26T12:30:39.246Z,6.65
2023-01-26T12:33:09.613Z,7.60
2023-01-26T12:35:48.423Z,7.23
2023-01-26T12:38:24.483Z,8.03
2023-01-26T12:41:05.046Z,8.53
2023-01-26T12:44:05.946Z,8.10
2023-01-26T12:46:39.491Z,8.27
2023-01-26T12:49:17.388Z,8.00
2023-01-26T12:51:49.666Z,10.60
2023-01-26T12:54:25.768Z,9.67
2023-01-26T12:56:57.882Z,9.47
2023-01-26T12:59:48.187Z,6.70
2023-01-26T13:02:30.471Z,9.55
2023-01-26T13:05:00.254Z,7.72
2023-01-26T13:07:31.935Z,7.33
2023-01-26T13:10:21.861Z,6.70
2023-01-26T13:12:51.666Z,7.50
2023-01-26T13:15:21.509Z,8.68
2023-01-26T13:17:52.955Z,7.68
2023-01-26T13:20:40.981Z,7.13
2023-01-26T13:23:38.628Z,7.63
2023-01-26T13:26:16.380Z,6.63
2023-01-26T13:28:45.282Z,6.60
2023-01-26T13:31:14.380Z,5.95
2023-01-26T13:33:43.646Z,6.25
2023-01-26T13:36:18.158Z,7.13
2023-01-26T13:39:00.563Z,9.32
2023-01-26T13:41:35.714Z,8.73
2023-01-26T13:44:11.579Z,7.90
2023-01-26T13:46:43.987Z,9.73
2023-01-26T13:49:26.997Z,11.13
2023-01-26T13:51:55.422Z,8.65
2023-01-26T13:54:25.115Z,8.90
2023-01-26T13:57:05.972Z,6.97
2023-01-26T13:59:35.313Z,6.55
2023-01-26T14:02:04.667Z,7.03
2023-01-26T14:04:35.369Z,8.45
2023-01-26T14:07:07.813Z,9.02
2023-01-26T14:09:45.920Z,8.67
2023-01-26T14:12:22.898Z,9.70
2023-01-26T14:14:53.583Z,10.68
2023-01-26T14:17:28.808Z,8.73
2023-01-26T14:19:57.609Z,9.50
2023-01-26T14:22:26.169Z,8.73
2023-01-26T14:24:55.444Z,10.97
2023-01-26T14:27:43.639Z,8.70
2023-01-26T14:30:34.448Z,8.80
2023-01-26T14:33:07.734Z,9.23
2023-01-26T14:36:00.133Z,10.67
2023-01-26T14:38:30.014Z,15.43
2023-01-26T14:41:01.195Z,16.40
2023-01-26T14:43:32.366Z,18.13
2023-01-26T14:46:08.132Z,15.33
2023-01-26T14:48:41.462Z,13.20
2023-01-26T14:51:20.424Z,10.90
2023-01-26T14:53:55.346Z,9.43
2023-01-26T14:56:31.437Z,9.30
2023-01-26T14:59:17.268Z,8.97
2023-01-26T15:01:51.174Z,8.20
2023-01-26T15:04:26.547Z,8.87
2023-01-26T15:06:55.040Z,8.23
2023-01-26T15:09:38.524Z,7.37
2023-01-26T15:12:22.107Z,8.83
2023-01-26T15:14:56.827Z,9.30
2023-01-26T15:17:30.553Z,8.63
2023-01-26T15:19:59.525Z,8.80
2023-01-26T15:22:36.178Z,7.83
2023-01-26T15:25:23.763Z,7.90
2023-01-26T15:28:09.446Z,7.93
2023-01-26T15:30:54.189Z,8.23
2023-01-26T15:34:04.707Z,7.17
2023-01-26T15:36:36.178Z,8.17
2023-01-26T15:39:13.100Z,9.77
2023-01-26T15:41:41.901Z,8.40
2023-01-26T15:44:16.036Z,30.60
2023-01-26T15:46:46.267Z,44.30
2023-01-26T15:49:14.971Z,30.80
2023-01-26T15:51:43.452Z,28.33
2023-01-26T15:54:12.777Z,41.13
2023-01-26T15:56:41.202Z,47.40
2023-01-26T15:59:09.742Z,43.73
2023-01-26T16:01:38.285Z,29.30
2023-01-26T16:04:11.324Z,16.07
2023-01-26T16:06:39.746Z,12.43
2023-01-26T16:09:08.104Z,12.47
2023-01-26T16:11:40.305Z,11.40
2023-01-26T16:14:10.672Z,9.93
2023-01-26T16:16:39.032Z,11.70
2023-01-26T16:19:10.151Z,9.27
2023-01-26T16:21:41.069Z,11.33
2023-01-26T16:24:12.408Z,11.70
2023-01-26T16:26:40.710Z,15.93
2023-01-26T16:29:43.818Z,15.30
2023-01-26T16:32:27.474Z,12.77
2023-01-26T16:34:57.408Z,13.97
2023-01-26T16:37:25.783Z,17.90
2023-01-26T16:39:54.153Z,17.17
2023-01-26T16:42:23.114Z,13.97
2023-01-26T16:44:51.480Z,17.03
2023-01-26T16:47:19.796Z,15.87
2023-01-26T16:49:48.249Z,16.73
2023-01-26T16:52:18.021Z,13.10
2023-01-26T16:54:48.530Z,18.47
2023-01-26T16:57:16.945Z,17.50
2023-01-26T16:59:45.416Z,12.37
2023-01-26T17:02:23.891Z,16.43
2023-01-26T17:04:52.284Z,21.53
2023-01-26T17:07:22.467Z,19.90
2023-01-26T17:09:50.939Z,20.30
2023-01-26T17:12:19.298Z,19.90
2023-01-26T17:14:47.728Z,17.70
2023-01-26T17:17:16.176Z,19.27
2023-01-26T17:19:44.672Z,16.83
2023-01-26T17:22:13.397Z,12.90
2023-01-26T17:24:43.472Z,12.27
2023-01-26T17:27:12.286Z,11.70
2023-01-26T17:29:42.299Z,11.07
2023-01-26T17:32:10.703Z,11.97
2023-01-26T17:34:39.047Z,11.43
2023-01-26T17:37:07.426Z,10.27
2023-01-26T17:39:35.712Z,9.57
2023-01-26T17:42:05.620Z,11.80
2023-01-26T17:44:34.390Z,13.73
2023-01-26T17:47:02.860Z,12.23
2023-01-26T17:49:31.206Z,10.77
2023-01-26T17:51:59.803Z,9.43
2023-01-26T17:54:28.254Z,11.17
2023-01-26T17:56:56.650Z,9.80
2023-01-26T17:59:26.715Z,11.93
2023-01-26T18:01:55.263Z,9.27
2023-01-26T18:04:23.757Z,9.23
2023-01-26T18:06:52.220Z,9.93
2023-01-26T18:09:20.801Z,10.00
2023-01-26T18:11:50.031Z,8.03
2023-01-26T18:14:18.334Z,9.70
2023-01-26T18:16:49.363Z,10.70
2023-01-26T18:19:17.975Z,9.00
2023-01-26T18:21:47.239Z,9.43
2023-01-26T18:24:16.582Z,13.70
2023-01-26T18:26:45.744Z,39.47
2023-01-26T18:29:14.958Z,29.40
2023-01-26T18:31:43.645Z,27.73
2023-01-26T18:34:14.187Z,42.50
2023-01-26T18:36:44.095Z,29.20
2023-01-26T18:39:16.893Z,19.67
2023-01-26T18:41:47.803Z,13.63
2023-01-26T18:44:19.878Z,9.73
2023-01-26T18:46:48.284Z,9.50
2023-01-26T18:49:18.354Z,7.70
2023-01-26T18:51:48.386Z,8.87
2023-01-26T18:54:17.580Z,9.37
2023-01-26T18:56:47.330Z,9.37
2023-01-26T18:59:16.389Z,9.67
2023-01-26T19:01:44.956Z,9.00
2023-01-26T19:04:13.509Z,8.83
2023-01-26T19:06:43.362Z,7.20
2023-01-26T19:09:11.843Z,7.23
2023-01-26T19:11:41.292Z,9.37
2023-01-26T19:14:09.849Z,8.47
2023-01-26T19:16:38.482Z,9.63
2023-01-26T19:19:06.914Z,10.97
2023-01-26T19:21:35.314Z,12.10
2023-01-26T19:24:07.560Z,14.27
2023-01-26T19:29:45.042Z,12.10
2023-01-26T19:32:20.700Z,11.17
2023-01-26T19:35:09.145Z,10.80
2023-01-26T19:37:37.668Z,8.37
2023-01-26T19:40:18.590Z,7.87
2023-01-26T19:42:46.976Z,10.03
2023-01-26T19:45:19.866Z,10.20
2023-01-26T19:47:48.318Z,10.67
2023-01-26T19:50:18.395Z,9.73
2023-01-26T19:52:46.892Z,8.33
2023-01-26T19:55:15.703Z,9.33
2023-01-26T19:57:44.291Z,9.70
2023-01-26T20:00:14.695Z,9.50
2023-01-26T20:02:44.717Z,9.60
2023-01-26T20:05:13.704Z,10.10
2023-01-26T20:08:01.618Z,10.50
2023-01-26T20:10:30.181Z,5.97
2023-01-26T20:13:01.737Z,6.40
2023-01-26T20:15:34.790Z,8.27
2023-01-26T20:18:07.689Z,8.03
2023-01-26T20:21:03.102Z,7.20
2023-01-26T20:23:31.889Z,8.33
2023-01-26T20:26:04.650Z,9.07
2023-01-26T20:28:33.429Z,7.13
2023-01-26T20:31:14.063Z,7.37
2023-01-26T20:34:08.591Z,12.30
2023-01-26T20:36:38.526Z,10.40
2023-01-26T20:39:11.086Z,10.33
2023-01-26T20:41:40.580Z,14.90
2023-01-26T20:44:09.979Z,12.10
2023-01-26T20:46:41.074Z,8.73
2023-01-26T20:49:14.563Z,8.77
2023-01-26T20:51:45.623Z,7.97
2023-01-26T20:54:17.265Z,7.27
2023-01-26T20:56:54.179Z,6.33
2023-01-26T20:59:23.457Z,14.60
2023-01-26T21:01:52.414Z,10.80
2023-01-26T21:04:23.948Z,7.10
2023-01-26T21:06:55.585Z,6.87
2023-01-26T21:09:24.304Z,6.80
2023-01-26T21:11:53.259Z,6.33
2023-01-26T21:14:21.943Z,10.70
2023-01-26T21:16:50.683Z,9.23
2023-01-26T21:19:22.047Z,9.40
2023-01-26T21:21:52.207Z,7.87
2023-01-26T21:24:21.108Z,7.17
2023-01-26T21:26:51.107Z,7.63
2023-01-26T21:29:20.241Z,7.30
2023-01-26T21:31:49.404Z,8.40
2023-01-26T21:34:18.058Z,7.00
2023-01-26T21:36:47.661Z,7.63
2023-01-26T21:39:17.776Z,7.20
2023-01-26T21:41:59.284Z,7.10
2023-01-26T21:44:29.849Z,6.63
2023-01-26T21:47:03.633Z,6.53
2023-01-26T21:49:38.276Z,8.40
2023-01-26T21:52:24.933Z,7.53
2023-01-26T21:54:55.022Z,7.50
2023-01-26T21:57:41.804Z,7.47
2023-01-26T22:00:20.067Z,7.37
2023-01-26T22:02:55.617Z,7.87
2023-01-26T22:06:08.255Z,8.03
2023-01-26T22:08:22.374Z,7.77
2023-01-26T22:10:57.191Z,7.80
2023-01-26T22:13:27.957Z,7.30
2023-01-26T22:15:57.043Z,7.73
2023-01-26T22:18:25.415Z,7.57
2023-01-26T22:20:55.473Z,8.87
2023-01-26T22:23:24.552Z,7.83
2023-01-26T22:25:53.125Z,7.70
2023-01-26T22:28:23.046Z,8.17
2023-01-26T22:30:52.551Z,8.13
2023-01-26T22:33:21.702Z,8.07
2023-01-26T22:35:50.003Z,7.90
2023-01-26T22:38:18.386Z,8.73
2023-01-26T22:40:47.133Z,8.47
2023-01-26T22:43:15.837Z,9.33
2023-01-26T22:45:48.816Z,9.57
2023-01-26T22:48:17.282Z,8.53
2023-01-26T22:50:46.558Z,8.80
2023-01-26T22:53:15.592Z,8.97
2023-01-26T22:55:44.764Z,33.20
2023-01-26T22:58:15.752Z,17.97
2023-01-26T23:00:45.570Z,12.87
2023-01-26T23:03:14.066Z,11.00
2023-01-26T23:05:42.765Z,9.70
2023-01-26T23:08:11.530Z,8.77
2023-01-26T23:10:40.137Z,8.50
2023-01-26T23:13:08.535Z,12.67
2023-01-26T23:15:36.865Z,16.33
2023-01-26T23:18:06.802Z,11.70
2023-01-26T23:20:35.098Z,9.97
2023-01-26T23:23:03.366Z,14.23
2023-01-26T23:25:49.219Z,14.03
2023-01-26T23:28:17.676Z,11.33
2023-01-26T23:30:46.107Z,9.23
2023-01-26T23:33:16.302Z,9.00
2023-01-26T23:35:44.688Z,8.77
2023-01-26T23:38:13.281Z,8.50
2023-01-26T23:40:42.725Z,9.00
2023-01-26T23:43:17.131Z,8.30
2023-01-26T23:45:46.841Z,8.10
2023-01-26T23:48:17.280Z,7.60
2023-01-26T23:50:45.788Z,8.10
2023-01-26T23:53:14.334Z,8.10
2023-01-26T23:55:43.650Z,7.93
2023-01-26T23:58:12.842Z,7.17
